x

Manistee Harbor, Mi (meem4) Weather Station

10:40am - Sun 19th Feb 2017 All times are CST. -6 hours from GMT.

  • Wind
    3mph, 5mph gusts
  • Air Temp 40°f
  • Sea Pressure 1018.6mb
  • Manistee Harbor, Mi
  • Manistee Harbor, Mi

More Historic Weather Station data

Upgrade to MSW Pro to gain access to the past 30 days of data for over 8000 Wavebouys and Weather Stations around the globe.

Join Pro

Comparision Forecast

View Surf forecast
   
Sun 02/19 10:40am 3 5 mph 1018.6mb 40f
10:30am 5
mph
1017.9mb 39f
10:20am 5
mph
1017.6mb 41f
10:10am 3
mph
1017.9mb 41f
10:00am 3 5 mph 1017.9mb 41f
9:40am 6
mph
1017.9mb 38f
9:30am 6
mph
1017.9mb 39f
9:20am 6
mph
1017.3mb 39f
9:10am 3
mph
1016.9mb 40f
9:00am 2
mph
1016.9mb 41f
8:40am  -  mph 1016.3mb 50f
8:30am  -  mph 1016.9mb 46f
8:20am  -  2 mph 1016.3mb 43f
8:10am 2 3 mph 1016.6mb 40f
8:00am 3
mph
1016.9mb 41f
7:40am 5 6 mph 1016.3mb 40f
7:30am 5
mph
1015.6mb 40f
7:20am 3
mph
1015.2mb 38f
7:10am 3 5 mph 1015.2mb 38f
7:00am 3
mph
1014.9mb 37f
6:40am 3 6 mph 1014.6mb 38f
6:30am 5 6 mph 1014.6mb 38f
6:20am 5 6 mph 1014.6mb 39f
6:10am 6 7 mph 1014.6mb 38f
6:00am 6 7 mph 1014.6mb 38f
5:40am 7
mph
1014.2mb 39f
5:30am 7
mph
1014.2mb 40f
5:20am 6 7 mph 1013.9mb 38f
5:10am 6 7 mph 1013.9mb 38f
5:00am 7 8 mph 1013.5mb 39f
4:40am 7 10 mph 1013.2mb 38f
4:30am 9 10 mph 1012.9mb 38f
4:20am 10
mph
1012.5mb 37f
4:10am 10
mph
1012.2mb 37f
4:00am 9 10 mph 1011.9mb 37f
3:40am 8 9 mph 1011.5mb 37f
3:30am 8 9 mph 1011.5mb 38f
3:20am 8
mph
1011.5mb 38f
3:10am 6 7 mph 1011.5mb 36f
3:00am 3
mph
1011.9mb 35f
2:40am 2 3 mph 1011.2mb 40f
2:30am  -  1 mph 1011.5mb 40f
2:20am  -  mph 1011.2mb 41f
2:10am  -  1 mph 1011.2mb 39f
2:00am 2
mph
1010.5mb 43f
1:40am 2 3 mph 1010.2mb 43f
1:30am 2 5 mph 1010.2mb 42f
1:20am 3
mph
1010.5mb 43f
1:10am 1 3 mph 1010.5mb 41f
1:00am  -  6 mph 1010.8mb 43f
12:40am  -  5 mph 1010.8mb 42f
12:30am 3 10 mph 1010.5mb 42f
12:20am 3 6 mph 1010.2mb 43f
12:10am 2 5 mph 1009.8mb 42f
12:00am 2 7 mph 1009.8mb 42f
Sat 02/18 11:40pm 5 8 mph 1009.8mb 42f
11:30pm 6 7 mph 1009.8mb 40f
11:20pm 5 6 mph 1009.8mb 41f
11:10pm 5 8 mph 1009.8mb 41f
11:00pm 8 10 mph 1009.8mb 40f
10:40pm 9 10 mph 1009.1mb 40f
10:30pm 6 8 mph 1008.8mb 42f
10:20pm 7 9 mph 1008.5mb 42f
10:10pm 10 11 mph 1008.5mb 42f
10:00pm 9 11 mph 1008.5mb 43f
9:40pm 11 13 mph 1008.5mb 41f
9:30pm 11 13 mph 1008.8mb 41f
9:20pm 13
mph
1008.8mb 41f
9:10pm 13 15 mph 1008.8mb 42f
9:00pm 14 16 mph 1008.8mb 41f
8:40pm 15 16 mph 1007.8mb 41f
8:30pm 13 14 mph 1007.5mb 41f
8:20pm 11 15 mph 1007.8mb 40f
8:10pm 13 15 mph 1007.8mb 41f
8:00pm 14 15 mph 1008.1mb 41f
7:40pm 14 17 mph 1008.5mb 41f
7:30pm 15 18 mph 1008.1mb 42f
7:20pm 14 16 mph 1008.1mb 42f
7:10pm 14
mph
1007.8mb 41f
7:00pm 10 11 mph 1007.5mb 41f
6:40pm 8 11 mph 1007.1mb 38f
6:30pm 9 10 mph 1007.5mb 38f
6:20pm 8 10 mph 1007.5mb 38f
6:10pm 9 11 mph 1007.8mb 38f
6:00pm 10
mph
1007.5mb 39f
5:30pm 10 14 mph 1006.4mb 38f
5:20pm 11 13 mph 1006.8mb 40f
5:10pm 11 17 mph 1006.4mb 41f
5:00pm 14 15 mph 1006.1mb 40f
4:40pm 11 13 mph 1006.4mb 40f
4:30pm 11 13 mph 1006.1mb 41f
4:20pm 11 13 mph 1005.8mb 40f
4:10pm 11 13 mph 1006.4mb 40f
4:00pm 13 14 mph 1005.4mb 40f
3:40pm 11 16 mph 1006.4mb 40f
3:30pm 8 14 mph 1005.8mb 40f
3:20pm 10 11 mph 1006.4mb 39f
3:10pm 11 13 mph 1005.1mb 40f
3:00pm 10
mph
1006.1mb 39f
2:40pm 9 10 mph 1006.1mb 39f
2:30pm 8 9 mph 1005.1mb 39f
2:20pm 9 11 mph 1006.1mb 39f
2:10pm 11 13 mph 1005.1mb 39f
2:00pm 13
mph
1006.1mb 39f
1:40pm 9 11 mph 1006.1mb 39f
1:30pm 10 11 mph 1005.1mb 39f
1:20pm 10
mph
1005.8mb 39f
1:10pm 10 11 mph 1005.1mb 38f
1:00pm 11 13 mph 1005.4mb 39f
12:40pm 9
mph
1005.4mb 39f
12:30pm 9 13 mph 1005.8mb 39f
12:20pm 11 13 mph 1005.1mb 39f
12:10pm 11 13 mph 1005.8mb 38f
12:00pm 11 13 mph 1005.4mb 39f
11:40am 13
mph
1005.8mb 39f
11:30am 9 11 mph 1005.8mb 38f
11:20am 10 11 mph 1005.4mb 38f
11:10am 11 14 mph 1005.4mb 39f
11:00am 11 14 mph 1005.8mb 39f
10:50am 13
mph
1005.1mb 39f
10:40am 10 15 mph 1005.8mb 39f
10:30am 11 15 mph 1004.7mb 40f
10:20am 11 17 mph 1005.4mb 40f
10:10am 15 17 mph 1005.1mb 39f
10:00am 15 16 mph 1004.4mb 39f
9:50am 15 17 mph 1005.1mb 40f
9:40am 14 16 mph 1004.7mb 40f
9:30am 15 16 mph 1004.1mb 39f
9:20am 14 15 mph 1004.7mb 40f
9:10am 14 15 mph 1004.1mb 39f
9:00am 13 16 mph 1003.7mb 40f
8:50am 14 18 mph 1004.1mb 40f
8:40am 15 17 mph 1004.4mb 39f
8:30am 16 17 mph 1003.7mb 39f
8:20am 15 16 mph 1003mb 39f
8:10am 14
mph
1003.4mb 38f
8:00am 14 16 mph 1003.4mb 38f
7:40am 15 16 mph 1003.4mb 39f
7:30am 16 21 mph 1002.7mb 39f
7:20am 18 20 mph 1002.4mb 39f
7:10am 17 23 mph 1002.4mb 39f
7:00am 17 20 mph 1002.4mb 39f
6:50am 18 20 mph 1002mb 39f
6:40am 18 20 mph 1002mb 38f
6:30am 16 18 mph 1002.4mb 39f
6:20am 17 20 mph 1002.4mb 40f
6:10am 17 18 mph 1002.4mb 39f
6:00am 18 20 mph 1002.4mb 40f
5:50am 16 20 mph 1002mb 40f
5:40am 18 21 mph 1001.7mb 40f
5:30am 18 20 mph 1001.4mb 40f
5:20am 16 21 mph 1001.4mb 40f
5:10am 18 20 mph 1001.4mb 40f
5:00am 17 20 mph 1001.7mb 40f
4:50am 20 24 mph 1001.7mb 41f
4:40am 20 24 mph 1001.7mb 41f
4:30am 21 23 mph 1001.4mb 41f
4:20am 21 24 mph 1001mb 42f
4:10am 22 24 mph 1000.7mb 42f
4:00am 20 23 mph 1000.7mb 41f
3:50am 20 25 mph 1001mb 42f
3:40am 22 24 mph 1001mb 44f
3:30am 23 29 mph 1000.7mb 44f
3:20am 21 26 mph 1000.7mb 44f
3:10am 24 26 mph 999.7mb 44f
3:00am 25 28 mph 1000mb 45f
2:50am 23 28 mph 1000.7mb 44f
2:40am 25 30 mph 1000.7mb 45f
2:30am 28 31 mph 1000.3mb 47f
2:20am 24 30 mph 999.7mb 47f
2:10am 24 30 mph 1000mb 47f
2:00am 24 26 mph 1000.3mb 47f
1:50am 23 29 mph 1000.3mb 48f
1:40am 23 30 mph 999.7mb 49f
1:30am 23 28 mph 999.7mb 47f
1:20am 23 28 mph 1000.3mb 46f
1:10am 20 28 mph 1000.7mb 48f
1:00am 20 25 mph 1000.3mb 47f
12:50am 16 21 mph 999.7mb 49f
12:40am 17 20 mph 1000mb 49f
12:30am 15 20 mph 1000.3mb 50f
12:20am 15 20 mph 1000.3mb 50f
12:10am 17 18 mph 1000mb 51f
12:00am 15 22 mph 1000mb 50f
Fri 02/17 11:50pm 10 16 mph 1000.3mb 49f
11:40pm 10 15 mph 1000.7mb 47f
11:30pm 8 11 mph 1000.7mb 47f
11:20pm 8 15 mph 1000.3mb 48f
11:10pm 10 13 mph 1000.3mb 48f
11:00pm 9 11 mph 1001mb 47f
10:50pm 8 11 mph 1001.4mb 45f
10:40pm 8 11 mph 1001.4mb 46f
10:30pm 8 14 mph 1001mb 46f
10:20pm 10 14 mph 1000.7mb 47f
10:10pm 9 14 mph 1001.4mb 46f
10:00pm 9 15 mph 1001.7mb 46f
9:50pm 10 15 mph 1001.7mb 46f
9:40pm 9 13 mph 1001.4mb 45f
9:30pm 9 15 mph 1001mb 45f
9:20pm 10 15 mph 1001.7mb 45f
9:10pm 11 16 mph 1002mb 45f
9:00pm 11 16 mph 1002mb 46f
8:50pm 11 16 mph 1001.7mb 45f
8:40pm 13 16 mph 1001.4mb 46f
8:30pm 11 18 mph 1002mb 45f
8:20pm 14 20 mph 1002.4mb 46f
8:10pm 13 20 mph 1002.4mb 46f
8:00pm 14 21 mph 1001.7mb 46f
7:50pm 16 22 mph 1001.7mb 46f
7:40pm 10 18 mph 1002mb 46f
7:30pm 13 17 mph 1002.4mb 46f
7:20pm 11 16 mph 1001.7mb 46f
7:10pm 13 17 mph 1001.7mb 46f
7:00pm 11 15 mph 1002.4mb 46f
6:40pm 6 13 mph 1002mb 46f
6:30pm 7 11 mph 1002.4mb 46f
6:20pm 7 11 mph 1003.4mb 46f
6:10pm 7 10 mph 1002.7mb 46f
6:00pm 6 8 mph 1002.7mb 47f
5:50pm 6 8 mph 1003mb 47f
5:30pm 6 9 mph 1003mb 48f
5:20pm 7 9 mph 1002.4mb 49f
5:10pm 7 10 mph 1002.7mb 50f
5:00pm 7 10 mph 1002.7mb 50f
4:50pm 6 11 mph 1003mb 50f
4:40pm 7 11 mph 1002.4mb 51f
4:30pm 9 13 mph 1003mb 51f
4:20pm 8 14 mph 1002.4mb 51f
4:10pm 6 11 mph 1002.7mb 50f
4:00pm 10 14 mph 1003.4mb 51f
3:50pm 9 14 mph 1002.7mb 51f
3:40pm 5 9 mph 1003mb 47f
3:30pm 5 6 mph 1003.7mb 42f
3:20pm 3 7 mph 1003.4mb 40f
3:10pm 6 8 mph 1003.4mb 40f
3:00pm 3 6 mph 1004.1mb 39f
2:50pm 5 7 mph 1004.1mb 39f
2:40pm 5 6 mph 1003.7mb 39f
2:30pm 6 7 mph 1003.7mb 39f
2:20pm 5 7 mph 1004.1mb 39f
2:10pm 5
mph
1004.7mb 40f
2:00pm 3 6 mph 1004.7mb 40f
1:50pm 2 6 mph 1004.7mb 40f
1:40pm 6
mph
1004.4mb 38f
1:30pm 3 7 mph 1004.1mb 40f
1:20pm 6 7 mph 1004.4mb 39f
1:10pm 5 7 mph 1004.7mb 39f
1:00pm 5 7 mph 1004.4mb 39f
12:50pm 6 7 mph 1004.7mb 38f
12:40pm 6 8 mph 1005.1mb 39f
12:30pm 6 8 mph 1004.4mb 39f
12:20pm 6 7 mph 1005.1mb 40f
12:10pm 5 11 mph 1004.7mb 40f
12:00pm 8 11 mph 1005.4mb 42f
11:40am 8 14 mph 1005.8mb 40f
11:30am 7 13 mph 1005.8mb 40f
11:20am 8 11 mph 1005.8mb 40f
11:10am 7 13 mph 1006.8mb 39f
11:00am 9 14 mph 1006.1mb 39f
10:50am 9 16 mph 1005.8mb 39f
10:40am 11 16 mph 1006.4mb 38f
10:30am 9 14 mph 1006.8mb 37f
10:20am 10 17 mph 1006.4mb 37f
10:10am 9 16 mph 1006.1mb 37f
10:00am 8 17 mph 1006.4mb 36f
9:50am 15 18 mph 1006.1mb 35f
9:40am 10 17 mph 1006.1mb 34f
9:30am 10 17 mph 1006.4mb 34f
9:20am 11 16 mph 1006.4mb 33f
9:10am 13 17 mph 1006.4mb 33f
9:00am 9 15 mph 1006.4mb 32f
8:50am 9 16 mph 1006.4mb 32f
8:40am 9 15 mph 1006.4mb 32f
8:30am 9 16 mph 1006.4mb 31f
8:20am 11 18 mph 1006.4mb 31f
8:10am 14 18 mph 1006.4mb 31f
8:00am 13 17 mph 1006.1mb 31f
7:50am 10 17 mph 1006.4mb 30f
7:40am 11 16 mph 1006.4mb 30f
7:30am 10 16 mph 1006.4mb 30f
7:20am 10 15 mph 1006.4mb 29f
7:10am 9 14 mph 1006.4mb 29f
7:00am 10 15 mph 1006.4mb 29f
6:50am 10 15 mph 1006.1mb 29f
6:40am 10 16 mph 1006.1mb 29f
6:30am 11 18 mph 1006.1mb 29f
6:20am 11 16 mph 1006.1mb 29f
6:10am 11 15 mph 1006.4mb 29f
6:00am 10 16 mph 1006.4mb 29f
5:50am 11 15 mph 1006.4mb 29f
5:40am 10 16 mph 1006.4mb 28f
5:30am 10 16 mph 1006.4mb 28f
5:20am 11 16 mph 1006.8mb 28f
5:10am 13 16 mph 1006.8mb 28f
5:00am 10 16 mph 1007.1mb 28f
4:50am 13 18 mph 1007.1mb 28f
4:40am 11 18 mph 1007.1mb 28f
4:30am 13 18 mph 1007.5mb 28f
4:20am 11 17 mph 1007.5mb 28f
4:10am 11 17 mph 1007.8mb 28f
4:00am 11 16 mph 1007.8mb 28f
3:50am 11 15 mph 1007.8mb 28f
3:40am 10 15 mph 1007.8mb 28f
3:30am 10 17 mph 1007.5mb 28f
3:20am 13 17 mph 1007.8mb 28f
3:10am 11 17 mph 1007.8mb 28f
3:00am 13 17 mph 1007.8mb 28f
2:50am 11 16 mph 1007.8mb 28f
2:40am 10 18 mph 1008.1mb 28f
2:30am 11 17 mph 1007.8mb 28f
2:20am 11 18 mph 1008.1mb 28f
2:10am 13 17 mph 1008.1mb 28f
2:00am 11 18 mph 1007.8mb 28f
1:50am 13 18 mph 1007.8mb 28f
1:40am 13 16 mph 1007.8mb 28f
1:30am 14 17 mph 1007.8mb 28f
1:20am 11 16 mph 1007.8mb 28f
1:10am 13 17 mph 1007.8mb 28f
1:00am 11 15 mph 1008.1mb 28f
12:40am 10 15 mph 1008.1mb 28f
12:30am 11 15 mph 1008.5mb 29f
12:20am 11 15 mph 1008.8mb 29f
12:10am 10 15 mph 1009.1mb 29f
12:00am 10 14 mph 1008.8mb 29f
Thu 02/16 11:40pm 7 13 mph 1009.5mb 29f
11:30pm 8 16 mph 1009.1mb 29f
11:20pm 10 14 mph 1009.5mb 29f
11:10pm 9 15 mph 1009.5mb 29f
11:00pm 8 13 mph 1009.8mb 29f
10:50pm 8 11 mph 1009.8mb 29f
10:40pm 6 10 mph 1010.2mb 29f
10:30pm 7 10 mph 1010.2mb 29f
10:20pm 7 11 mph 1010.2mb 30f
10:10pm 5 9 mph 1010.2mb 29f
10:00pm 5 9 mph 1010.2mb 29f
9:50pm 5 7 mph 1010.5mb 29f
9:40pm 5 8 mph 1010.5mb 29f
9:30pm 5 7 mph 1010.5mb 29f
9:20pm 3 6 mph 1010.5mb 29f
9:10pm 2 5 mph 1010.8mb 29f
9:00pm 2 5 mph 1010.8mb 29f
8:50pm 3 5 mph 1010.8mb 29f
8:40pm 1 3 mph 1010.8mb 30f
8:30pm  -  3 mph 1011.2mb 30f
8:20pm  -  5 mph 1011.2mb 30f
8:10pm 3 6 mph 1010.8mb 30f
8:00pm 3 8 mph 1011.2mb 30f
7:50pm 1 5 mph 1010.8mb 30f
7:40pm 3 7 mph 1010.8mb 30f
7:30pm 3 6 mph 1011.2mb 30f
7:20pm 5 6 mph 1011.2mb 30f
7:10pm 2 5 mph 1011.9mb 30f
7:00pm 2 3 mph 1011.5mb 30f
6:50pm  -  1 mph 1011.5mb 30f
6:40pm  -  mph 1011.5mb 30f
6:30pm  -  2 mph 1011.9mb 30f
6:20pm  -  5 mph 1011.5mb 30f
6:10pm 1 3 mph 1011.5mb 30f
6:00pm  -  2 mph 1012.2mb 30f
5:50pm  -  2 mph 1011.9mb 30f
5:30pm 1 3 mph 1011.9mb 30f
5:20pm 2 3 mph 1011.9mb 29f
5:10pm 3
mph
1012.2mb 30f
5:00pm 1 5 mph 1012.2mb 30f
4:50pm 3 6 mph 1011.9mb 30f
4:40pm  -  1 mph 1011.9mb 30f
4:30pm 1 3 mph 1011.9mb 30f
4:20pm 2 3 mph 1011.5mb 30f
4:10pm  -  mph 1010.8mb 31f
4:00pm  -  5 mph 1010.8mb 30f
3:50pm 5 6 mph 1010.8mb 30f
3:40pm 5 7 mph 1011.9mb 30f
3:30pm 7
mph
1012.2mb 29f
3:20pm 5 7 mph 1011.9mb 30f
3:10pm 5 6 mph 1011.2mb 30f
3:00pm 5
mph
1011.5mb 31f
2:50pm 2 6 mph 1011.9mb 30f
2:40pm 3 7 mph 1012.5mb 30f
2:30pm 3 6 mph 1012.2mb 29f
2:20pm 6 7 mph 1011.9mb 29f
2:10pm 5 6 mph 1011.9mb 28f
2:00pm 2 5 mph 1012.5mb 29f
1:50pm 2 6 mph 1012.9mb 28f
1:40pm 1 2 mph 1012.9mb 29f
1:30pm 2 5 mph 1012.5mb 28f
1:20pm 3 6 mph 1012.9mb 28f
1:10pm 3 6 mph 1013.5mb 29f
1:00pm 3 5 mph 1013.2mb 28f
12:50pm 3 5 mph 1012.9mb 28f
12:40pm 3 5 mph 1013.5mb 28f
12:30pm 2 3 mph 1013.9mb 29f
12:20pm 2 5 mph 1013.9mb 28f
12:10pm 3 5 mph 1013.9mb 28f
12:00pm 2 7 mph 1013.9mb 28f
11:50am 5 7 mph 1014.6mb 28f
11:40am 5
mph
1014.6mb 28f
11:30am 3 5 mph 1014.6mb 28f
11:20am 3 5 mph 1013.9mb 29f
11:10am  -  3 mph 1014.2mb 29f
11:00am 1 3 mph 1014.6mb 28f
10:50am  -  3 mph 1014.9mb 27f
10:40am 2 3 mph 1014.9mb 27f
10:30am 1 3 mph 1014.6mb 27f
10:20am 1 3 mph 1014.9mb 27f
10:10am 3
mph
1014.6mb 27f
10:00am  -  2 mph 1014.6mb 29f
9:50am  -  2 mph 1014.2mb 29f
9:40am  -  1 mph 1014.2mb 28f
9:30am  -  6 mph 1014.2mb 27f
9:20am 6
mph
1014.6mb 26f
9:10am 2 6 mph 1014.2mb 27f
9:00am 6 7 mph 1014.2mb 27f
8:50am 3 6 mph 1014.2mb 26f
8:40am 7 10 mph 1014.2mb 26f
8:30am 8 11 mph 1014.2mb 26f
8:20am 8 15 mph 1014.2mb 26f
8:10am 9 14 mph 1014.2mb 26f
8:00am 10 11 mph 1013.9mb 26f
7:50am 9 13 mph 1013.9mb 26f
7:40am 7 13 mph 1013.5mb 26f
7:30am 9 11 mph 1013.5mb 26f
7:20am 9 13 mph 1013.5mb 26f
7:10am 11 13 mph 1013.5mb 26f
7:00am 8 11 mph 1013.5mb 25f
6:50am 13 16 mph 1013.2mb 25f
6:40am 10 15 mph 1013.2mb 26f
6:30am 7 11 mph 1013.5mb 26f
6:20am 10 15 mph 1013.5mb 25f
6:10am 11 14 mph 1013.5mb 26f
6:00am 10 16 mph 1013.5mb 25f
5:50am 9 13 mph 1013.5mb 25f
5:40am 11 14 mph 1013.5mb 25f
5:30am 15 20 mph 1013.5mb 25f
5:20am 10 17 mph 1013.5mb 26f
5:10am 13 16 mph 1013.9mb 25f
5:00am 11 18 mph 1013.9mb 26f
4:50am 14 18 mph 1013.9mb 26f
4:40am 14 18 mph 1014.2mb 26f
4:30am 13 16 mph 1014.2mb 26f
4:20am 14 18 mph 1013.9mb 26f
4:10am 14 18 mph 1013.9mb 26f
4:00am 11 17 mph 1013.5mb 26f
3:50am 13 22 mph 1013.5mb 26f
3:40am 11 21 mph 1013.5mb 26f
3:30am 14 17 mph 1013.2mb 26f
3:20am 14 17 mph 1012.9mb 26f
3:10am 10 17 mph 1012.9mb 26f
3:00am 13 16 mph 1012.5mb 26f
2:50am 10 20 mph 1012.5mb 26f
2:40am 15 20 mph 1012.5mb 26f
2:30am 11 15 mph 1012.9mb 26f
2:20am 10 16 mph 1012.9mb 26f
2:10am 11 16 mph 1012.9mb 26f
2:00am 13 18 mph 1012.9mb 26f
1:50am 15 21 mph 1012.9mb 26f
1:40am 14 18 mph 1012.9mb 26f
1:30am 14 20 mph 1012.9mb 26f
1:20am 14 18 mph 1012.9mb 26f
1:10am 15 22 mph 1012.9mb 26f
1:00am 14 20 mph 1012.9mb 26f
12:50am 16 20 mph 1013.2mb 26f
12:40am 11 21 mph 1013.2mb 26f
12:30am 14 17 mph 1013.2mb 26f
12:20am 13 21 mph 1013.2mb 26f
12:10am 14 18 mph 1013.2mb 26f
12:00am 17 22 mph 1013.2mb 26f
Wed 02/15 11:50pm 13 18 mph 1013.5mb 26f
11:40pm 18 22 mph 1013.5mb 26f
11:30pm 14 23 mph 1013.2mb 26f
11:20pm 15 21 mph 1013.2mb 26f
11:10pm 15 20 mph 1013.2mb 26f
11:00pm 15 20 mph 1013.2mb 25f
10:50pm 14 24 mph 1013.2mb 25f
10:40pm 18 23 mph 1012.9mb 26f
10:30pm 20 22 mph 1012.9mb 26f
10:20pm 17 23 mph 1012.9mb 26f
10:10pm 15 23 mph 1012.9mb 26f
10:00pm 18 24 mph 1012.5mb 26f
9:50pm 16 22 mph 1012.5mb 26f
9:40pm 20 25 mph 1012.5mb 26f
9:30pm 16 23 mph 1012.5mb 26f
9:20pm 16 23 mph 1012.5mb 26f
9:10pm 14 21 mph 1012.5mb 26f
9:00pm 16 23 mph 1012.9mb 26f
8:50pm 16 22 mph 1012.5mb 26f
8:40pm 17 21 mph 1012.5mb 26f
8:30pm 16 23 mph 1012.5mb 26f
8:20pm 18 25 mph 1012.5mb 26f
8:10pm 18 23 mph 1012.9mb 26f
8:00pm 13 26 mph 1012.9mb 26f
7:50pm 22 26 mph 1012.9mb 26f
7:30pm 20 23 mph 1013.2mb 26f
7:20pm 17 22 mph 1013.2mb 27f
7:10pm 18 24 mph 1013.2mb 26f
7:00pm 14 21 mph 1013.2mb 26f
6:40pm 21 26 mph 1012.9mb 26f
6:30pm 21 24 mph 1012.9mb 26f
6:20pm 18 23 mph 1012.9mb 26f
6:10pm 18 23 mph 1012.9mb 26f
6:00pm 16 24 mph 1012.9mb 26f
5:50pm 14 25 mph 1012.5mb 26f